createdAt,value
2022-09-15T00:02:46.390Z,89.48
2022-09-15T00:06:22.340Z,89.35
2022-09-15T00:09:59.448Z,89.57
2022-09-15T00:13:38.573Z,89.20
2022-09-15T00:17:12.934Z,89.06
2022-09-15T00:20:49.517Z,88.66
2022-09-15T00:24:26.545Z,88.54
2022-09-15T00:28:03.443Z,88.68
2022-09-15T00:31:40.040Z,88.66
2022-09-15T00:35:17.712Z,89.12
2022-09-15T00:38:54.528Z,89.46
2022-09-15T00:42:49.314Z,89.58
2022-09-15T00:46:31.834Z,89.56
2022-09-15T00:50:16.759Z,89.64
2022-09-15T00:54:00.904Z,89.55
2022-09-15T00:57:29.241Z,89.52
2022-09-15T01:01:02.240Z,89.52
2022-09-15T01:04:36.556Z,89.41
2022-09-15T01:08:25.038Z,89.04
2022-09-15T01:12:08.902Z,89.28
2022-09-15T01:16:12.400Z,89.11
2022-09-15T01:20:31.879Z,89.04
2022-09-15T01:24:31.253Z,89.05
2022-09-15T01:28:24.415Z,89.03
2022-09-15T01:32:27.721Z,88.95
2022-09-15T01:35:56.322Z,89.07
2022-09-15T01:39:32.203Z,89.22
2022-09-15T01:43:25.007Z,89.34
2022-09-15T01:46:52.335Z,89.54
2022-09-15T01:50:32.963Z,89.76
2022-09-15T01:54:04.069Z,89.46
2022-09-15T01:57:37.237Z,89.41
2022-09-15T02:01:50.988Z,89.22
2022-09-15T02:05:25.473Z,89.56
2022-09-15T02:09:00.513Z,89.59
2022-09-15T02:12:35.622Z,89.79
2022-09-15T02:16:04.972Z,90.10
2022-09-15T02:19:43.163Z,90.17
2022-09-15T02:23:42.910Z,89.81
2022-09-15T02:27:28.192Z,89.91
2022-09-15T02:30:53.541Z,89.68
2022-09-15T02:34:34.286Z,90.06
2022-09-15T02:38:07.517Z,90.43
2022-09-15T02:41:41.668Z,90.69
2022-09-15T02:45:17.474Z,90.77
2022-09-15T02:48:54.482Z,90.79
2022-09-15T02:52:31.095Z,90.90
2022-09-15T02:56:08.041Z,90.93
2022-09-15T03:00:02.940Z,90.72
2022-09-15T03:03:26.458Z,90.47
2022-09-15T03:07:02.119Z,90.51
2022-09-15T03:10:58.400Z,90.74
2022-09-15T03:14:39.095Z,90.87
2022-09-15T03:18:02.109Z,90.82
2022-09-15T03:21:37.819Z,90.70
2022-09-15T03:25:14.451Z,90.56
2022-09-15T03:28:51.199Z,90.41
2022-09-15T03:32:46.736Z,90.56
2022-09-15T03:36:27.976Z,90.67
2022-09-15T03:39:49.862Z,90.59
2022-09-15T03:43:45.306Z,90.63
2022-09-15T03:47:07.118Z,90.71
2022-09-15T03:50:43.699Z,90.73
2022-09-15T03:54:21.093Z,90.46
2022-09-15T03:57:57.408Z,90.73
2022-09-15T04:01:35.271Z,90.85
2022-09-15T04:05:13.266Z,90.95
2022-09-15T04:08:49.113Z,91.24
2022-09-15T04:12:24.696Z,91.29
2022-09-15T04:16:04.255Z,91.34
2022-09-15T04:19:37.992Z,91.43
2022-09-15T04:23:14.943Z,91.46
2022-09-15T04:26:51.657Z,91.21
2022-09-15T04:30:28.643Z,91.15
2022-09-15T04:34:05.496Z,91.58
2022-09-15T04:37:42.081Z,92.32
2022-09-15T04:41:37.861Z,92.36
2022-09-15T04:44:59.547Z,92.69
2022-09-15T04:48:56.079Z,92.48
2022-09-15T04:52:17.790Z,92.96
2022-09-15T04:56:11.562Z,92.94
2022-09-15T04:59:53.438Z,92.56
2022-09-15T05:03:15.312Z,93.03
2022-09-15T05:06:52.774Z,92.88
2022-09-15T05:10:28.789Z,92.94
2022-09-15T05:14:06.032Z,92.82
2022-09-15T05:17:42.681Z,92.93
2022-09-15T05:21:21.487Z,93.16
2022-09-15T05:24:56.194Z,93.07
2022-09-15T05:28:34.842Z,92.91
2022-09-15T05:32:09.807Z,93.09
2022-09-15T05:35:58.729Z,93.24
2022-09-15T05:39:23.367Z,92.83
2022-09-15T05:43:19.722Z,93.13
2022-09-15T05:46:40.987Z,93.10
2022-09-15T05:50:38.704Z,93.27
2022-09-15T05:54:00.589Z,93.41
2022-09-15T05:57:37.154Z,93.21
2022-09-15T06:01:19.887Z,93.60
2022-09-15T06:04:50.716Z,93.70
2022-09-15T06:08:35.976Z,93.68
2022-09-15T06:12:04.987Z,93.47
2022-09-15T06:16:12.289Z,93.18
2022-09-15T06:19:37.813Z,93.32
2022-09-15T06:23:30.254Z,93.44
2022-09-15T06:26:53.722Z,93.45
2022-09-15T06:30:30.285Z,94.12
2022-09-15T06:34:06.811Z,94.14
2022-09-15T06:37:43.454Z,94.07
2022-09-15T06:41:21.607Z,94.00
2022-09-15T06:44:58.221Z,93.96
2022-09-15T06:48:35.247Z,93.89
2022-09-15T06:52:29.903Z,94.09
2022-09-15T06:55:52.161Z,94.33
2022-09-15T06:59:28.415Z,94.22
2022-09-15T07:03:24.323Z,94.12
2022-09-15T07:06:47.591Z,94.35
2022-09-15T07:10:44.228Z,94.22
2022-09-15T07:14:25.209Z,94.68
2022-09-15T07:18:06.098Z,94.48
2022-09-15T07:21:27.632Z,94.71
2022-09-15T07:25:23.805Z,94.71
2022-09-15T07:28:50.059Z,94.53
2022-09-15T07:32:22.573Z,94.57
2022-09-15T07:36:19.166Z,94.35
2022-09-15T07:39:41.016Z,94.03
2022-09-15T07:43:17.544Z,93.84
2022-09-15T07:46:54.638Z,93.93
2022-09-15T07:50:50.274Z,94.02
2022-09-15T07:54:30.691Z,94.24
2022-09-15T07:58:00.528Z,94.07
2022-09-15T08:01:29.479Z,93.83
2022-09-15T08:05:27.562Z,93.74
2022-09-15T08:08:55.232Z,93.70
2022-09-15T08:12:45.900Z,93.73
2022-09-15T08:16:09.525Z,93.76
2022-09-15T08:19:44.397Z,93.87
2022-09-15T08:23:40.527Z,93.58
2022-09-15T08:27:21.145Z,93.55
2022-09-15T08:30:42.996Z,93.21
2022-09-15T08:34:20.150Z,93.23
2022-09-15T08:38:15.718Z,93.11
2022-09-15T08:41:44.250Z,93.06
2022-09-15T08:45:48.889Z,93.19
2022-09-15T08:49:30.777Z,92.72
2022-09-15T08:53:37.125Z,92.48
2022-09-15T08:57:22.922Z,92.51
2022-09-15T09:00:48.834Z,92.74
2022-09-15T09:04:47.532Z,92.78
2022-09-15T09:08:32.225Z,92.63
2022-09-15T09:12:35.701Z,92.45
2022-09-15T09:16:36.239Z,92.35
2022-09-15T09:20:36.855Z,92.43
2022-09-15T09:24:14.555Z,92.18
2022-09-15T09:27:38.938Z,92.31
2022-09-15T09:31:21.457Z,91.11
2022-09-15T09:35:13.470Z,91.17
2022-09-15T09:38:39.834Z,90.93
2022-09-15T09:42:36.525Z,91.24
2022-09-15T09:45:59.419Z,90.82
2022-09-15T09:49:41.074Z,90.18
2022-09-15T09:53:32.463Z,90.49
2022-09-15T09:56:57.252Z,90.59
2022-09-15T10:00:52.160Z,90.18
2022-09-15T10:04:19.357Z,90.22
2022-09-15T10:08:18.723Z,89.75
2022-09-15T10:12:03.436Z,89.51
2022-09-15T10:15:27.994Z,89.44
2022-09-15T10:19:02.952Z,89.22
2022-09-15T10:23:20.531Z,89.50
2022-09-15T10:27:17.615Z,90.02
2022-09-15T10:30:58.814Z,90.03
2022-09-15T10:34:25.479Z,89.80
2022-09-15T10:38:28.195Z,89.66
2022-09-15T10:42:48.234Z,89.26
2022-09-15T10:46:50.651Z,89.16
2022-09-15T10:50:21.733Z,89.21
2022-09-15T10:54:09.689Z,89.56
2022-09-15T10:57:44.478Z,89.78
2022-09-15T11:01:32.242Z,89.69
2022-09-15T11:05:12.436Z,89.85
2022-09-15T11:09:08.036Z,89.87
2022-09-15T11:13:09.766Z,90.27
2022-09-15T11:17:10.051Z,90.49
2022-09-15T11:20:55.984Z,90.43
2022-09-15T11:24:44.270Z,90.53
2022-09-15T11:28:36.178Z,90.36
2022-09-15T11:32:58.033Z,89.95
2022-09-15T11:36:30.500Z,89.80
2022-09-15T11:40:16.409Z,89.50
2022-09-15T11:43:55.753Z,89.63
2022-09-15T11:47:24.258Z,89.38
2022-09-15T11:50:59.482Z,89.14
2022-09-15T11:54:43.274Z,89.55
2022-09-15T11:58:36.045Z,88.83
2022-09-15T12:02:17.074Z,88.67
2022-09-15T12:06:04.841Z,88.49
2022-09-15T12:09:27.218Z,88.50
2022-09-15T12:13:24.814Z,88.61
2022-09-15T12:16:47.656Z,88.89
2022-09-15T12:20:43.459Z,88.94
2022-09-15T12:24:51.969Z,88.95
2022-09-15T12:28:22.508Z,88.75
2022-09-15T12:32:26.222Z,89.02
2022-09-15T12:35:48.103Z,88.95
2022-09-15T12:39:41.005Z,89.04
2022-09-15T12:43:18.822Z,88.89
2022-09-15T12:46:51.601Z,88.92
2022-09-15T12:50:27.228Z,88.66
2022-09-15T12:54:00.398Z,88.43
2022-09-15T12:58:13.180Z,88.32
2022-09-15T13:01:56.011Z,88.50
2022-09-15T13:05:50.929Z,88.77
2022-09-15T13:09:28.086Z,88.82
2022-09-15T13:13:11.343Z,88.48
2022-09-15T13:16:48.806Z,88.39
2022-09-15T13:20:20.109Z,88.35
2022-09-15T13:23:53.119Z,88.22
2022-09-15T13:27:49.070Z,87.95
2022-09-15T13:31:34.597Z,87.80
2022-09-15T13:35:26.712Z,87.84
2022-09-15T13:39:36.362Z,88.14
2022-09-15T13:43:29.891Z,88.13
2022-09-15T13:47:22.928Z,88.01
2022-09-15T13:51:01.674Z,87.67
2022-09-15T13:54:24.556Z,87.87
2022-09-15T14:02:09.203Z,88.07
2022-09-15T14:05:45.483Z,88.12
2022-09-15T14:09:46.816Z,87.93
2022-09-15T14:13:15.860Z,87.78
2022-09-15T14:17:05.142Z,87.51
2022-09-15T14:20:33.513Z,87.55
2022-09-15T14:24:07.039Z,87.93
2022-09-15T14:27:51.572Z,88.29
2022-09-15T14:31:26.491Z,88.56
2022-09-15T14:34:59.190Z,88.71
2022-09-15T14:39:18.003Z,88.79
2022-09-15T14:42:41.528Z,88.88
2022-09-15T14:46:19.322Z,88.66
2022-09-15T14:50:20.966Z,88.50
2022-09-15T14:54:03.176Z,88.58
2022-09-15T14:57:30.865Z,88.63
2022-09-15T15:01:13.417Z,88.48
2022-09-15T15:05:08.026Z,88.55
2022-09-15T15:08:42.161Z,88.41
2022-09-15T15:12:33.698Z,88.32
2022-09-15T15:15:55.790Z,88.39
2022-09-15T15:19:41.176Z,88.41
2022-09-15T15:23:25.665Z,88.70
2022-09-15T15:27:43.012Z,88.79
2022-09-15T15:31:13.728Z,88.86
2022-09-15T15:35:08.369Z,88.86
2022-09-15T15:38:35.556Z,88.66
2022-09-15T15:42:28.173Z,88.78
2022-09-15T15:46:10.654Z,89.02
2022-09-15T15:50:12.374Z,89.15
2022-09-15T15:53:34.978Z,89.12
2022-09-15T15:57:37.331Z,88.94
2022-09-15T16:00:59.136Z,88.89
2022-09-15T16:04:35.928Z,89.12
2022-09-15T16:08:22.880Z,89.45
2022-09-15T16:12:08.921Z,89.65
2022-09-15T16:15:30.895Z,89.84
2022-09-15T16:19:08.539Z,89.87
2022-09-15T16:23:03.354Z,90.04
2022-09-15T16:26:26.020Z,89.86
2022-09-15T16:30:03.589Z,89.88
2022-09-15T16:33:39.780Z,89.85
2022-09-15T16:37:15.749Z,89.92
2022-09-15T16:41:17.470Z,90.29
2022-09-15T16:44:39.722Z,90.19
2022-09-15T16:48:34.938Z,89.97
2022-09-15T16:52:16.282Z,89.73
2022-09-15T16:55:40.497Z,89.59
2022-09-15T16:59:15.026Z,90.08
2022-09-15T17:02:51.660Z,90.44
2022-09-15T17:06:28.740Z,90.68
2022-09-15T17:10:06.065Z,90.71
2022-09-15T17:13:42.062Z,90.54
2022-09-15T17:17:25.498Z,90.69
2022-09-15T17:21:16.555Z,90.97
2022-09-15T17:24:38.352Z,90.96
2022-09-15T17:28:15.754Z,90.88
2022-09-15T17:31:52.075Z,90.76
2022-09-15T17:35:33.832Z,90.85
2022-09-15T17:39:05.904Z,90.51
2022-09-15T17:42:43.314Z,90.43
2022-09-15T17:46:19.267Z,90.52
2022-09-15T17:49:56.173Z,90.70
2022-09-15T17:53:32.945Z,90.80
2022-09-15T17:57:12.079Z,90.92
2022-09-15T18:00:47.751Z,90.89
2022-09-15T18:04:23.309Z,91.01
2022-09-15T18:08:03.481Z,90.83
2022-09-15T18:11:36.786Z,90.63
2022-09-15T18:15:17.710Z,90.56
2022-09-15T18:18:50.309Z,90.79
2022-09-15T18:22:27.002Z,90.87
2022-09-15T18:26:03.992Z,91.08
2022-09-15T18:29:59.806Z,91.27
2022-09-15T18:33:40.302Z,90.85
2022-09-15T18:37:02.662Z,91.01
2022-09-15T18:40:58.391Z,91.33
2022-09-15T18:44:39.282Z,92.11
2022-09-15T18:48:00.790Z,92.08
2022-09-15T18:51:51.148Z,92.02
2022-09-15T18:55:34.084Z,91.92
2022-09-15T18:59:17.671Z,92.01
2022-09-15T19:03:01.820Z,92.10
2022-09-15T19:06:23.467Z,92.07
2022-09-15T19:10:01.791Z,92.42
2022-09-15T19:13:56.391Z,92.61
2022-09-15T19:17:19.484Z,92.53
2022-09-15T19:21:14.506Z,92.31
2022-09-15T19:24:55.870Z,92.26
2022-09-15T19:28:17.600Z,92.42
2022-09-15T19:31:55.900Z,92.33
2022-09-15T19:36:05.067Z,92.52
2022-09-15T19:39:52.520Z,92.27
2022-09-15T19:43:14.499Z,92.17
2022-09-15T19:46:51.519Z,92.19
2022-09-15T19:50:28.742Z,92.43
2022-09-15T19:54:26.256Z,92.73
2022-09-15T19:58:07.526Z,92.81
2022-09-15T20:01:48.726Z,93.01
2022-09-15T20:05:29.676Z,92.91
2022-09-15T20:08:53.837Z,92.57
2022-09-15T20:12:28.268Z,92.71
2022-09-15T20:16:24.842Z,92.60
2022-09-15T20:19:46.591Z,92.51
2022-09-15T20:23:44.695Z,92.77
2022-09-15T20:27:25.400Z,92.73
2022-09-15T20:31:10.509Z,92.74
2022-09-15T20:34:32.385Z,92.95
2022-09-15T20:38:28.036Z,92.77
2022-09-15T20:41:50.072Z,92.66
2022-09-15T20:45:26.397Z,92.80
2022-09-15T20:49:04.663Z,92.87
2022-09-15T20:52:40.873Z,92.90
2022-09-15T20:56:21.297Z,92.96
2022-09-15T20:59:54.015Z,92.98
2022-09-15T21:03:49.412Z,93.02
2022-09-15T21:07:11.418Z,93.15
2022-09-15T21:10:49.346Z,93.31
2022-09-15T21:14:24.950Z,93.21
2022-09-15T21:18:21.007Z,93.32
2022-09-15T21:21:43.497Z,93.55
2022-09-15T21:25:20.820Z,93.58
2022-09-15T21:28:57.277Z,93.64
2022-09-15T21:32:52.397Z,93.99
2022-09-15T21:36:22.323Z,94.10
2022-09-15T21:40:10.213Z,93.99
2022-09-15T21:43:37.411Z,93.80
2022-09-15T21:47:08.937Z,93.68
2022-09-15T21:50:52.335Z,93.98
2022-09-15T21:54:22.814Z,93.95
2022-09-15T21:57:58.975Z,94.01
2022-09-15T22:01:54.618Z,94.04
2022-09-15T22:05:16.334Z,94.23
2022-09-15T22:08:54.854Z,94.16
2022-09-15T22:12:51.946Z,94.22
2022-09-15T22:16:32.338Z,94.12
2022-09-15T22:19:54.711Z,94.20
2022-09-15T22:23:52.708Z,94.22
2022-09-15T22:27:15.020Z,94.31
2022-09-15T22:30:56.934Z,94.45
2022-09-15T22:34:29.253Z,94.57
2022-09-15T22:38:05.046Z,94.52
2022-09-15T22:41:42.435Z,94.46
2022-09-15T22:45:19.023Z,94.33
2022-09-15T22:48:55.465Z,94.33
2022-09-15T22:52:51.689Z,94.25
2022-09-15T22:56:19.953Z,94.19
2022-09-15T23:00:10.160Z,94.34
2022-09-15T23:03:32.569Z,94.02
2022-09-15T23:07:09.188Z,93.87
2022-09-15T23:10:45.529Z,93.84
2022-09-15T23:14:41.877Z,93.96
2022-09-15T23:18:03.819Z,93.83
2022-09-15T23:21:40.873Z,93.71
2022-09-15T23:25:17.332Z,93.53
2022-09-15T23:28:54.770Z,93.58
2022-09-15T23:32:49.503Z,93.45
2022-09-15T23:36:30.140Z,93.22
2022-09-15T23:40:10.817Z,93.27
2022-09-15T23:43:33.357Z,93.23
2022-09-15T23:47:09.458Z,93.38
2022-09-15T23:50:46.500Z,93.55
2022-09-15T23:54:23.165Z,93.56
2022-09-15T23:57:59.863Z,93.61
